sensor_id;sensor_type;location;lat;lon;timestamp;temperature;humidity
152;DHT22;68;48.792;9.164;2022-11-18T00:02:14;9.30;67.90
152;DHT22;68;48.792;9.164;2022-11-18T00:04:41;9.40;69.10
152;DHT22;68;48.792;9.164;2022-11-18T00:07:07;9.50;73.30
152;DHT22;68;48.792;9.164;2022-11-18T00:09:34;9.40;73.90
152;DHT22;68;48.792;9.164;2022-11-18T00:12:01;9.60;74.60
152;DHT22;68;48.792;9.164;2022-11-18T00:14:46;9.40;77.60
152;DHT22;68;48.792;9.164;2022-11-18T00:17:13;9.40;76.10
152;DHT22;68;48.792;9.164;2022-11-18T00:19:40;9.30;75.60
152;DHT22;68;48.792;9.164;2022-11-18T00:22:11;9.40;75.60
152;DHT22;68;48.792;9.164;2022-11-18T00:24:39;9.40;75.90
152;DHT22;68;48.792;9.164;2022-11-18T00:27:05;9.40;76.20
152;DHT22;68;48.792;9.164;2022-11-18T00:29:32;9.50;75.10
152;DHT22;68;48.792;9.164;2022-11-18T00:32:00;9.50;76.90
152;DHT22;68;48.792;9.164;2022-11-18T00:34:27;9.40;75.10
152;DHT22;68;48.792;9.164;2022-11-18T00:36:54;9.40;77.00
152;DHT22;68;48.792;9.164;2022-11-18T00:39:20;9.30;75.60
152;DHT22;68;48.792;9.164;2022-11-18T00:41:48;9.20;72.00
152;DHT22;68;48.792;9.164;2022-11-18T00:44:32;9.10;69.60
152;DHT22;68;48.792;9.164;2022-11-18T00:47:00;9.10;65.90
152;DHT22;68;48.792;9.164;2022-11-18T00:49:28;9.00;66.70
152;DHT22;68;48.792;9.164;2022-11-18T00:51:55;9.00;64.20
152;DHT22;68;48.792;9.164;2022-11-18T00:54:21;9.20;62.70
152;DHT22;68;48.792;9.164;2022-11-18T00:56:48;9.20;63.80
152;DHT22;68;48.792;9.164;2022-11-18T00:59:15;9.30;63.70
152;DHT22;68;48.792;9.164;2022-11-18T01:01:42;9.30;66.40
152;DHT22;68;48.792;9.164;2022-11-18T01:04:10;9.30;68.70
152;DHT22;68;48.792;9.164;2022-11-18T01:06:37;9.30;69.30
152;DHT22;68;48.792;9.164;2022-11-18T01:09:04;9.40;69.90
152;DHT22;68;48.792;9.164;2022-11-18T01:11:30;9.20;70.70
152;DHT22;68;48.792;9.164;2022-11-18T01:14:15;9.30;68.00
152;DHT22;68;48.792;9.164;2022-11-18T01:16:42;9.30;66.40
152;DHT22;68;48.792;9.164;2022-11-18T01:19:10;9.30;66.00
152;DHT22;68;48.792;9.164;2022-11-18T01:21:38;9.20;65.90
152;DHT22;68;48.792;9.164;2022-11-18T01:24:05;9.20;60.70
152;DHT22;68;48.792;9.164;2022-11-18T01:26:32;9.40;60.30
152;DHT22;68;48.792;9.164;2022-11-18T01:28:59;9.40;60.50
152;DHT22;68;48.792;9.164;2022-11-18T01:31:25;9.40;62.90
152;DHT22;68;48.792;9.164;2022-11-18T01:33:52;9.30;62.70
152;DHT22;68;48.792;9.164;2022-11-18T01:36:22;9.30;61.40
152;DHT22;68;48.792;9.164;2022-11-18T01:38:49;9.30;63.10
152;DHT22;68;48.792;9.164;2022-11-18T01:41:17;9.40;59.30
152;DHT22;68;48.792;9.164;2022-11-18T01:43:48;9.30;59.00
152;DHT22;68;48.792;9.164;2022-11-18T01:46:15;9.40;58.10
152;DHT22;68;48.792;9.164;2022-11-18T01:48:43;9.40;60.70
152;DHT22;68;48.792;9.164;2022-11-18T01:51:13;9.40;61.10
152;DHT22;68;48.792;9.164;2022-11-18T01:53:45;9.40;59.60
152;DHT22;68;48.792;9.164;2022-11-18T01:56:16;9.40;60.00
152;DHT22;68;48.792;9.164;2022-11-18T01:58:46;9.40;61.30
152;DHT22;68;48.792;9.164;2022-11-18T02:01:15;9.60;61.60
152;DHT22;68;48.792;9.164;2022-11-18T02:03:42;9.40;63.70
152;DHT22;68;48.792;9.164;2022-11-18T02:06:10;9.40;62.70
152;DHT22;68;48.792;9.164;2022-11-18T02:08:39;9.50;63.10
152;DHT22;68;48.792;9.164;2022-11-18T02:11:11;9.30;61.00
152;DHT22;68;48.792;9.164;2022-11-18T02:14:00;9.20;62.70
152;DHT22;68;48.792;9.164;2022-11-18T02:16:37;9.00;65.60
152;DHT22;68;48.792;9.164;2022-11-18T02:19:19;8.80;63.00
152;DHT22;68;48.792;9.164;2022-11-18T02:21:56;8.90;58.50
152;DHT22;68;48.792;9.164;2022-11-18T02:28:33;9.00;53.80
152;DHT22;68;48.792;9.164;2022-11-18T02:31:07;9.00;56.00
152;DHT22;68;48.792;9.164;2022-11-18T02:33:42;9.10;53.20
152;DHT22;68;48.792;9.164;2022-11-18T02:36:15;9.00;54.40
152;DHT22;68;48.792;9.164;2022-11-18T02:38:45;9.00;53.10
152;DHT22;68;48.792;9.164;2022-11-18T02:41:17;8.90;51.20
152;DHT22;68;48.792;9.164;2022-11-18T02:43:46;8.80;49.30
152;DHT22;68;48.792;9.164;2022-11-18T02:46:19;9.00;47.30
152;DHT22;68;48.792;9.164;2022-11-18T02:48:48;9.00;49.30
152;DHT22;68;48.792;9.164;2022-11-18T02:51:18;8.90;47.50
152;DHT22;68;48.792;9.164;2022-11-18T02:53:47;8.80;44.50
152;DHT22;68;48.792;9.164;2022-11-18T02:56:15;8.80;41.20
152;DHT22;68;48.792;9.164;2022-11-18T02:58:42;8.80;39.30
152;DHT22;68;48.792;9.164;2022-11-18T03:01:17;9.00;37.80
152;DHT22;68;48.792;9.164;2022-11-18T03:03:44;9.10;40.40
152;DHT22;68;48.792;9.164;2022-11-18T03:06:21;9.00;40.70
152;DHT22;68;48.792;9.164;2022-11-18T03:08:55;8.90;42.70
152;DHT22;68;48.792;9.164;2022-11-18T03:11:27;8.80;43.30
152;DHT22;68;48.792;9.164;2022-11-18T03:14:05;9.00;44.90
152;DHT22;68;48.792;9.164;2022-11-18T03:16:39;9.00;48.50
152;DHT22;68;48.792;9.164;2022-11-18T03:19:17;9.00;49.40
152;DHT22;68;48.792;9.164;2022-11-18T03:21:51;9.00;49.10
152;DHT22;68;48.792;9.164;2022-11-18T03:24:25;9.00;52.80
152;DHT22;68;48.792;9.164;2022-11-18T03:27:00;9.10;49.30
152;DHT22;68;48.792;9.164;2022-11-18T03:29:33;9.20;50.30
152;DHT22;68;48.792;9.164;2022-11-18T03:32:05;9.10;52.50
152;DHT22;68;48.792;9.164;2022-11-18T03:34:35;8.90;52.80
152;DHT22;68;48.792;9.164;2022-11-18T03:37:06;9.00;49.30
152;DHT22;68;48.792;9.164;2022-11-18T03:39:36;8.90;48.90
152;DHT22;68;48.792;9.164;2022-11-18T03:42:08;9.10;47.40
152;DHT22;68;48.792;9.164;2022-11-18T03:44:40;8.90;48.90
152;DHT22;68;48.792;9.164;2022-11-18T03:47:14;9.10;45.30
152;DHT22;68;48.792;9.164;2022-11-18T03:49:45;8.90;46.90
152;DHT22;68;48.792;9.164;2022-11-18T03:52:16;8.90;44.70
152;DHT22;68;48.792;9.164;2022-11-18T03:54:45;8.80;43.50
152;DHT22;68;48.792;9.164;2022-11-18T03:57:17;8.70;42.60
152;DHT22;68;48.792;9.164;2022-11-18T03:59:48;8.70;41.10
152;DHT22;68;48.792;9.164;2022-11-18T04:02:20;8.70;41.60
152;DHT22;68;48.792;9.164;2022-11-18T04:04:50;8.70;41.90
152;DHT22;68;48.792;9.164;2022-11-18T04:07:23;8.60;40.60
152;DHT22;68;48.792;9.164;2022-11-18T04:09:55;8.70;43.90
152;DHT22;68;48.792;9.164;2022-11-18T04:12:24;8.50;46.60
152;DHT22;68;48.792;9.164;2022-11-18T04:14:53;8.60;43.30
152;DHT22;68;48.792;9.164;2022-11-18T04:17:25;8.40;44.60
152;DHT22;68;48.792;9.164;2022-11-18T04:19:52;8.40;45.00
152;DHT22;68;48.792;9.164;2022-11-18T04:22:19;8.50;45.90
152;DHT22;68;48.792;9.164;2022-11-18T04:24:46;8.50;48.30
152;DHT22;68;48.792;9.164;2022-11-18T04:27:13;8.50;49.60
152;DHT22;68;48.792;9.164;2022-11-18T04:29:40;8.60;49.60
152;DHT22;68;48.792;9.164;2022-11-18T04:32:06;8.60;50.10
152;DHT22;68;48.792;9.164;2022-11-18T04:34:35;8.70;55.70
152;DHT22;68;48.792;9.164;2022-11-18T04:37:01;8.70;58.10
152;DHT22;68;48.792;9.164;2022-11-18T04:39:28;8.70;58.60
152;DHT22;68;48.792;9.164;2022-11-18T04:41:55;8.50;59.30
152;DHT22;68;48.792;9.164;2022-11-18T04:44:22;8.30;56.20
152;DHT22;68;48.792;9.164;2022-11-18T04:46:49;8.40;52.20
152;DHT22;68;48.792;9.164;2022-11-18T04:49:16;8.40;51.70
152;DHT22;68;48.792;9.164;2022-11-18T04:51:45;8.40;50.50
152;DHT22;68;48.792;9.164;2022-11-18T04:54:13;8.40;51.50
152;DHT22;68;48.792;9.164;2022-11-18T04:56:40;8.70;51.50
152;DHT22;68;48.792;9.164;2022-11-18T04:59:07;8.60;55.10
152;DHT22;68;48.792;9.164;2022-11-18T05:01:34;8.70;56.20
152;DHT22;68;48.792;9.164;2022-11-18T05:04:02;8.90;59.90
152;DHT22;68;48.792;9.164;2022-11-18T05:06:29;9.00;65.70
152;DHT22;68;48.792;9.164;2022-11-18T05:08:59;9.10;70.10
152;DHT22;68;48.792;9.164;2022-11-18T05:11:26;9.10;74.90
152;DHT22;68;48.792;9.164;2022-11-18T05:14:10;9.10;76.90
152;DHT22;68;48.792;9.164;2022-11-18T05:16:37;9.00;79.70
152;DHT22;68;48.792;9.164;2022-11-18T05:19:04;9.10;79.90
152;DHT22;68;48.792;9.164;2022-11-18T05:21:32;9.20;81.60
152;DHT22;68;48.792;9.164;2022-11-18T05:24:00;9.20;82.70
152;DHT22;68;48.792;9.164;2022-11-18T05:26:27;9.20;83.90
152;DHT22;68;48.792;9.164;2022-11-18T05:28:54;9.10;83.70
152;DHT22;68;48.792;9.164;2022-11-18T05:31:21;8.90;83.30
152;DHT22;68;48.792;9.164;2022-11-18T05:33:48;8.80;81.80
152;DHT22;68;48.792;9.164;2022-11-18T05:36:17;8.80;79.20
152;DHT22;68;48.792;9.164;2022-11-18T05:38:45;8.90;78.20
152;DHT22;68;48.792;9.164;2022-11-18T05:41:13;9.00;78.30
152;DHT22;68;48.792;9.164;2022-11-18T05:44:00;9.00;80.10
152;DHT22;68;48.792;9.164;2022-11-18T05:46:27;9.10;80.90
152;DHT22;68;48.792;9.164;2022-11-18T05:48:54;9.10;81.50
152;DHT22;68;48.792;9.164;2022-11-18T05:51:20;9.20;83.30
152;DHT22;68;48.792;9.164;2022-11-18T05:53:49;9.10;85.10
152;DHT22;68;48.792;9.164;2022-11-18T05:56:19;9.10;85.30
152;DHT22;68;48.792;9.164;2022-11-18T05:58:47;9.20;85.30
152;DHT22;68;48.792;9.164;2022-11-18T06:01:15;9.00;86.40
152;DHT22;68;48.792;9.164;2022-11-18T06:03:43;8.80;83.00
152;DHT22;68;48.792;9.164;2022-11-18T06:06:11;8.90;82.10
152;DHT22;68;48.792;9.164;2022-11-18T06:08:43;9.10;82.10
152;DHT22;68;48.792;9.164;2022-11-18T06:11:14;9.10;84.50
152;DHT22;68;48.792;9.164;2022-11-18T06:13:48;9.10;84.70
152;DHT22;68;48.792;9.164;2022-11-18T06:16:17;9.20;85.00
152;DHT22;68;48.792;9.164;2022-11-18T06:18:45;9.10;85.80
152;DHT22;68;48.792;9.164;2022-11-18T06:21:11;9.10;86.20
152;DHT22;68;48.792;9.164;2022-11-18T06:23:40;9.10;87.20
152;DHT22;68;48.792;9.164;2022-11-18T06:26:08;9.00;87.10
152;DHT22;68;48.792;9.164;2022-11-18T06:28:37;8.70;85.50
152;DHT22;68;48.792;9.164;2022-11-18T06:31:05;8.30;80.70
152;DHT22;68;48.792;9.164;2022-11-18T06:33:32;8.50;75.20
152;DHT22;68;48.792;9.164;2022-11-18T06:35:59;8.50;72.40
152;DHT22;68;48.792;9.164;2022-11-18T06:38:25;8.70;73.40
152;DHT22;68;48.792;9.164;2022-11-18T06:40:52;8.50;74.40
152;DHT22;68;48.792;9.164;2022-11-18T06:43:19;8.60;71.60
152;DHT22;68;48.792;9.164;2022-11-18T06:46:08;8.50;71.30
152;DHT22;68;48.792;9.164;2022-11-18T06:48:53;8.50;70.30
152;DHT22;68;48.792;9.164;2022-11-18T06:51:20;8.80;71.40
152;DHT22;68;48.792;9.164;2022-11-18T06:53:48;8.60;73.40
152;DHT22;68;48.792;9.164;2022-11-18T06:56:16;8.70;72.30
152;DHT22;68;48.792;9.164;2022-11-18T06:58:43;8.60;76.40
152;DHT22;68;48.792;9.164;2022-11-18T07:01:13;8.50;72.00
152;DHT22;68;48.792;9.164;2022-11-18T07:03:41;8.50;70.90
152;DHT22;68;48.792;9.164;2022-11-18T07:06:09;8.70;69.20
152;DHT22;68;48.792;9.164;2022-11-18T07:08:37;8.60;74.40
152;DHT22;68;48.792;9.164;2022-11-18T07:11:07;8.50;71.80
152;DHT22;68;48.792;9.164;2022-11-18T07:13:34;8.30;70.00
152;DHT22;68;48.792;9.164;2022-11-18T07:16:03;8.50;70.40
152;DHT22;68;48.792;9.164;2022-11-18T07:18:31;8.60;71.10
152;DHT22;68;48.792;9.164;2022-11-18T07:21:01;8.60;71.50
152;DHT22;68;48.792;9.164;2022-11-18T07:23:28;8.60;72.30
152;DHT22;68;48.792;9.164;2022-11-18T07:25:55;8.60;71.80
152;DHT22;68;48.792;9.164;2022-11-18T07:28:22;8.80;70.60
152;DHT22;68;48.792;9.164;2022-11-18T07:30:49;8.70;72.40
152;DHT22;68;48.792;9.164;2022-11-18T07:33:16;8.70;71.50
152;DHT22;68;48.792;9.164;2022-11-18T07:35:44;8.50;68.20
152;DHT22;68;48.792;9.164;2022-11-18T07:38:11;8.40;69.80
152;DHT22;68;48.792;9.164;2022-11-18T07:40:38;8.40;70.60
152;DHT22;68;48.792;9.164;2022-11-18T07:43:04;8.50;72.20
152;DHT22;68;48.792;9.164;2022-11-18T07:45:31;8.50;69.00
152;DHT22;68;48.792;9.164;2022-11-18T07:47:59;8.70;69.70
152;DHT22;68;48.792;9.164;2022-11-18T07:50:26;8.70;71.80
152;DHT22;68;48.792;9.164;2022-11-18T07:52:55;8.80;73.70
152;DHT22;68;48.792;9.164;2022-11-18T07:55:23;8.80;71.10
152;DHT22;68;48.792;9.164;2022-11-18T07:57:49;8.70;70.90
152;DHT22;68;48.792;9.164;2022-11-18T08:00:17;8.80;69.10
152;DHT22;68;48.792;9.164;2022-11-18T08:02:44;8.70;70.30
152;DHT22;68;48.792;9.164;2022-11-18T08:05:10;8.60;69.70
152;DHT22;68;48.792;9.164;2022-11-18T08:07:37;8.60;69.80
152;DHT22;68;48.792;9.164;2022-11-18T08:10:07;8.60;65.70
152;DHT22;68;48.792;9.164;2022-11-18T08:12:33;8.60;68.30
152;DHT22;68;48.792;9.164;2022-11-18T08:15:00;8.70;66.90
152;DHT22;68;48.792;9.164;2022-11-18T08:17:27;8.90;66.80
152;DHT22;68;48.792;9.164;2022-11-18T08:19:54;8.90;71.80
152;DHT22;68;48.792;9.164;2022-11-18T08:22:21;8.80;75.90
152;DHT22;68;48.792;9.164;2022-11-18T08:24:47;8.50;75.40
152;DHT22;68;48.792;9.164;2022-11-18T08:27:15;8.50;70.50
152;DHT22;68;48.792;9.164;2022-11-18T08:29:42;8.50;68.60
152;DHT22;68;48.792;9.164;2022-11-18T08:32:09;8.50;66.70
152;DHT22;68;48.792;9.164;2022-11-18T08:34:36;8.70;66.80
152;DHT22;68;48.792;9.164;2022-11-18T08:37:02;8.50;69.50
152;DHT22;68;48.792;9.164;2022-11-18T08:39:29;8.60;68.20
152;DHT22;68;48.792;9.164;2022-11-18T08:41:57;8.50;68.90
152;DHT22;68;48.792;9.164;2022-11-18T08:44:25;8.50;65.20
152;DHT22;68;48.792;9.164;2022-11-18T08:46:52;8.70;62.70
152;DHT22;68;48.792;9.164;2022-11-18T08:49:19;8.60;65.50
152;DHT22;68;48.792;9.164;2022-11-18T08:51:45;8.60;65.00
152;DHT22;68;48.792;9.164;2022-11-18T08:54:12;8.60;63.50
152;DHT22;68;48.792;9.164;2022-11-18T08:56:39;8.60;66.00
152;DHT22;68;48.792;9.164;2022-11-18T08:59:06;8.50;59.60
152;DHT22;68;48.792;9.164;2022-11-18T09:01:35;8.60;55.20
152;DHT22;68;48.792;9.164;2022-11-18T09:04:02;8.50;55.60
152;DHT22;68;48.792;9.164;2022-11-18T09:06:29;8.60;55.50
152;DHT22;68;48.792;9.164;2022-11-18T09:08:56;8.60;56.90
152;DHT22;68;48.792;9.164;2022-11-18T09:11:24;8.60;56.80
152;DHT22;68;48.792;9.164;2022-11-18T09:13:52;8.70;57.10
152;DHT22;68;48.792;9.164;2022-11-18T09:16:19;8.70;58.60
152;DHT22;68;48.792;9.164;2022-11-18T09:18:49;8.60;60.20
152;DHT22;68;48.792;9.164;2022-11-18T09:21:17;8.60;57.30
152;DHT22;68;48.792;9.164;2022-11-18T09:23:44;8.60;56.80
152;DHT22;68;48.792;9.164;2022-11-18T09:26:13;8.60;54.00
152;DHT22;68;48.792;9.164;2022-11-18T09:28:40;8.70;52.10
152;DHT22;68;48.792;9.164;2022-11-18T09:31:09;8.70;50.20
152;DHT22;68;48.792;9.164;2022-11-18T09:33:36;8.90;50.90
152;DHT22;68;48.792;9.164;2022-11-18T09:36:10;8.90;53.40
152;DHT22;68;48.792;9.164;2022-11-18T09:38:37;9.10;56.60
152;DHT22;68;48.792;9.164;2022-11-18T09:41:11;9.20;57.80
152;DHT22;68;48.792;9.164;2022-11-18T09:43:48;8.90;63.20
152;DHT22;68;48.792;9.164;2022-11-18T09:46:22;9.00;60.70
152;DHT22;68;48.792;9.164;2022-11-18T09:48:51;9.00;61.70
152;DHT22;68;48.792;9.164;2022-11-18T09:51:38;9.10;60.10
152;DHT22;68;48.792;9.164;2022-11-18T09:54:10;9.30;61.20
152;DHT22;68;48.792;9.164;2022-11-18T09:56:38;9.30;63.50
152;DHT22;68;48.792;9.164;2022-11-18T09:59:05;9.40;64.50
152;DHT22;68;48.792;9.164;2022-11-18T10:01:32;9.50;66.60
152;DHT22;68;48.792;9.164;2022-11-18T10:04:01;9.50;69.40
152;DHT22;68;48.792;9.164;2022-11-18T10:06:31;9.40;70.80
152;DHT22;68;48.792;9.164;2022-11-18T10:09:12;9.50;70.70
152;DHT22;68;48.792;9.164;2022-11-18T10:11:48;9.50;70.60
152;DHT22;68;48.792;9.164;2022-11-18T10:14:26;9.70;69.20
152;DHT22;68;48.792;9.164;2022-11-18T10:16:59;9.90;69.90
152;DHT22;68;48.792;9.164;2022-11-18T10:19:33;9.90;71.50
152;DHT22;68;48.792;9.164;2022-11-18T10:22:14;9.90;74.10
152;DHT22;68;48.792;9.164;2022-11-18T10:24:49;10.10;76.50
152;DHT22;68;48.792;9.164;2022-11-18T10:27:17;9.90;78.40
152;DHT22;68;48.792;9.164;2022-11-18T10:32:13;9.50;74.70
152;DHT22;68;48.792;9.164;2022-11-18T10:34:47;9.40;69.50
152;DHT22;68;48.792;9.164;2022-11-18T10:37:22;9.40;65.00
152;DHT22;68;48.792;9.164;2022-11-18T10:39:52;9.50;59.60
152;DHT22;68;48.792;9.164;2022-11-18T10:42:25;9.40;56.60
152;DHT22;68;48.792;9.164;2022-11-18T10:44:53;9.50;54.10
152;DHT22;68;48.792;9.164;2022-11-18T10:47:28;9.70;51.80
152;DHT22;68;48.792;9.164;2022-11-18T10:49:57;9.80;54.70
152;DHT22;68;48.792;9.164;2022-11-18T10:52:25;9.70;54.80
152;DHT22;68;48.792;9.164;2022-11-18T10:55:08;9.70;57.20
152;DHT22;68;48.792;9.164;2022-11-18T10:57:44;9.60;59.70
152;DHT22;68;48.792;9.164;2022-11-18T11:00:33;9.80;58.10
152;DHT22;68;48.792;9.164;2022-11-18T11:03:02;10.00;61.70
152;DHT22;68;48.792;9.164;2022-11-18T11:05:41;9.80;65.80
152;DHT22;68;48.792;9.164;2022-11-18T11:08:18;9.70;64.20
152;DHT22;68;48.792;9.164;2022-11-18T11:10:53;9.40;63.40
152;DHT22;68;48.792;9.164;2022-11-18T11:13:22;9.30;58.80
152;DHT22;68;48.792;9.164;2022-11-18T11:15:51;9.20;57.80
152;DHT22;68;48.792;9.164;2022-11-18T11:18:20;9.10;55.40
152;DHT22;68;48.792;9.164;2022-11-18T11:21:02;9.00;53.10
152;DHT22;68;48.792;9.164;2022-11-18T11:23:31;9.00;49.20
152;DHT22;68;48.792;9.164;2022-11-18T11:26:02;9.20;48.60
152;DHT22;68;48.792;9.164;2022-11-18T11:28:36;9.10;45.30
152;DHT22;68;48.792;9.164;2022-11-18T11:31:10;9.20;44.00
152;DHT22;68;48.792;9.164;2022-11-18T11:33:49;9.20;45.50
152;DHT22;68;48.792;9.164;2022-11-18T11:36:31;9.30;45.80
152;DHT22;68;48.792;9.164;2022-11-18T11:39:19;9.40;36.80
152;DHT22;68;48.792;9.164;2022-11-18T11:41:55;9.80;33.00
152;DHT22;68;48.792;9.164;2022-11-18T11:44:34;10.20;36.60
152;DHT22;68;48.792;9.164;2022-11-18T11:47:14;10.30;62.70
152;DHT22;68;48.792;9.164;2022-11-18T11:50:04;10.20;75.80
152;DHT22;68;48.792;9.164;2022-11-18T11:52:41;10.40;75.00
152;DHT22;68;48.792;9.164;2022-11-18T11:55:18;10.10;74.70
152;DHT22;68;48.792;9.164;2022-11-18T11:58:08;10.00;71.80
152;DHT22;68;48.792;9.164;2022-11-18T12:00:44;10.00;71.00
152;DHT22;68;48.792;9.164;2022-11-18T12:03:25;10.00;68.20
152;DHT22;68;48.792;9.164;2022-11-18T12:05:54;9.90;78.30
152;DHT22;68;48.792;9.164;2022-11-18T12:08:23;10.00;76.20
152;DHT22;68;48.792;9.164;2022-11-18T12:10:52;10.00;77.30
152;DHT22;68;48.792;9.164;2022-11-18T12:13:36;10.00;77.80
152;DHT22;68;48.792;9.164;2022-11-18T12:16:14;10.10;82.10
152;DHT22;68;48.792;9.164;2022-11-18T12:18:46;9.80;84.20
152;DHT22;68;48.792;9.164;2022-11-18T12:24:30;9.80;82.40
152;DHT22;68;48.792;9.164;2022-11-18T12:26:58;9.80;79.10
152;DHT22;68;48.792;9.164;2022-11-18T12:29:31;9.70;76.60
152;DHT22;68;48.792;9.164;2022-11-18T12:32:00;9.70;76.20
152;DHT22;68;48.792;9.164;2022-11-18T12:34:31;9.50;75.00
152;DHT22;68;48.792;9.164;2022-11-18T12:37:42;9.30;75.10
152;DHT22;68;48.792;9.164;2022-11-18T12:40:10;9.20;74.60
152;DHT22;68;48.792;9.164;2022-11-18T12:42:50;9.20;75.90
152;DHT22;68;48.792;9.164;2022-11-18T12:45:54;9.30;75.50
152;DHT22;68;48.792;9.164;2022-11-18T12:54:35;9.10;77.40
152;DHT22;68;48.792;9.164;2022-11-18T12:57:14;9.00;71.80
152;DHT22;68;48.792;9.164;2022-11-18T12:59:44;9.00;67.90
152;DHT22;68;48.792;9.164;2022-11-18T13:02:24;9.10;65.50
152;DHT22;68;48.792;9.164;2022-11-18T13:05:08;9.20;64.50
152;DHT22;68;48.792;9.164;2022-11-18T13:07:42;9.20;64.80
152;DHT22;68;48.792;9.164;2022-11-18T13:10:29;9.30;64.30
152;DHT22;68;48.792;9.164;2022-11-18T13:12:58;9.50;64.70
152;DHT22;68;48.792;9.164;2022-11-18T13:15:25;9.70;65.00
152;DHT22;68;48.792;9.164;2022-11-18T13:18:13;9.90;68.00
152;DHT22;68;48.792;9.164;2022-11-18T13:20:41;10.00;76.50
152;DHT22;68;48.792;9.164;2022-11-18T13:23:25;9.90;81.10
152;DHT22;68;48.792;9.164;2022-11-18T13:26:14;9.90;78.00
152;DHT22;68;48.792;9.164;2022-11-18T13:28:48;9.90;80.00
152;DHT22;68;48.792;9.164;2022-11-18T13:31:21;9.80;83.10
152;DHT22;68;48.792;9.164;2022-11-18T13:33:53;9.70;80.00
152;DHT22;68;48.792;9.164;2022-11-18T13:36:21;9.70;82.00
152;DHT22;68;48.792;9.164;2022-11-18T13:38:55;9.60;83.00
152;DHT22;68;48.792;9.164;2022-11-18T13:41:23;9.60;85.60
152;DHT22;68;48.792;9.164;2022-11-18T13:44:09;9.60;83.80
152;DHT22;68;48.792;9.164;2022-11-18T13:46:37;9.60;81.80
152;DHT22;68;48.792;9.164;2022-11-18T13:49:11;9.40;77.10
152;DHT22;68;48.792;9.164;2022-11-18T13:51:39;9.40;76.30
152;DHT22;68;48.792;9.164;2022-11-18T13:54:10;9.30;78.70
152;DHT22;68;48.792;9.164;2022-11-18T13:56:38;9.40;79.70
152;DHT22;68;48.792;9.164;2022-11-18T13:59:15;9.40;84.10
152;DHT22;68;48.792;9.164;2022-11-18T14:01:43;9.60;82.90
152;DHT22;68;48.792;9.164;2022-11-18T14:04:18;9.60;82.90
152;DHT22;68;48.792;9.164;2022-11-18T14:06:45;9.70;80.00
152;DHT22;68;48.792;9.164;2022-11-18T14:09:19;9.70;82.30
152;DHT22;68;48.792;9.164;2022-11-18T14:11:57;9.70;85.40
152;DHT22;68;48.792;9.164;2022-11-18T14:14:30;9.40;89.80
152;DHT22;68;48.792;9.164;2022-11-18T14:17:13;9.40;89.00
152;DHT22;68;48.792;9.164;2022-11-18T14:19:43;9.20;87.10
152;DHT22;68;48.792;9.164;2022-11-18T14:22:12;9.20;84.30
152;DHT22;68;48.792;9.164;2022-11-18T14:24:40;9.10;84.20
152;DHT22;68;48.792;9.164;2022-11-18T14:27:36;9.20;82.20
152;DHT22;68;48.792;9.164;2022-11-18T14:30:27;9.10;81.20
152;DHT22;68;48.792;9.164;2022-11-18T14:33:17;9.20;78.60
152;DHT22;68;48.792;9.164;2022-11-18T14:35:50;9.10;83.90
152;DHT22;68;48.792;9.164;2022-11-18T14:38:19;9.30;83.50
152;DHT22;68;48.792;9.164;2022-11-18T14:40:53;9.30;81.40
152;DHT22;68;48.792;9.164;2022-11-18T14:43:21;9.30;76.90
152;DHT22;68;48.792;9.164;2022-11-18T14:45:48;9.50;79.70
152;DHT22;68;48.792;9.164;2022-11-18T14:48:17;9.50;81.60
152;DHT22;68;48.792;9.164;2022-11-18T14:50:45;9.20;88.00
152;DHT22;68;48.792;9.164;2022-11-18T14:53:14;9.20;86.50
152;DHT22;68;48.792;9.164;2022-11-18T14:55:41;9.10;85.10
152;DHT22;68;48.792;9.164;2022-11-18T14:58:12;8.90;80.60
152;DHT22;68;48.792;9.164;2022-11-18T15:00:40;9.00;78.50
152;DHT22;68;48.792;9.164;2022-11-18T15:03:07;9.00;84.70
152;DHT22;68;48.792;9.164;2022-11-18T15:05:33;9.00;84.40
152;DHT22;68;48.792;9.164;2022-11-18T15:08:00;9.00;83.10
152;DHT22;68;48.792;9.164;2022-11-18T15:10:29;9.00;80.70
152;DHT22;68;48.792;9.164;2022-11-18T15:12:55;9.00;83.90
152;DHT22;68;48.792;9.164;2022-11-18T15:15:22;8.80;83.40
152;DHT22;68;48.792;9.164;2022-11-18T15:17:49;8.90;83.30
152;DHT22;68;48.792;9.164;2022-11-18T15:20:18;8.90;81.80
152;DHT22;68;48.792;9.164;2022-11-18T15:22:45;8.90;74.80
152;DHT22;68;48.792;9.164;2022-11-18T15:25:12;8.80;85.40
152;DHT22;68;48.792;9.164;2022-11-18T15:27:40;8.80;90.00
152;DHT22;68;48.792;9.164;2022-11-18T15:30:10;8.90;88.40
152;DHT22;68;48.792;9.164;2022-11-18T15:32:38;8.80;86.10
152;DHT22;68;48.792;9.164;2022-11-18T15:35:05;8.80;84.30
152;DHT22;68;48.792;9.164;2022-11-18T15:37:32;8.80;86.80
152;DHT22;68;48.792;9.164;2022-11-18T15:39:59;8.90;82.40
152;DHT22;68;48.792;9.164;2022-11-18T15:42:25;8.90;85.70
152;DHT22;68;48.792;9.164;2022-11-18T15:44:53;8.90;84.60
152;DHT22;68;48.792;9.164;2022-11-18T15:47:20;9.00;87.10
152;DHT22;68;48.792;9.164;2022-11-18T15:49:47;8.90;83.30
152;DHT22;68;48.792;9.164;2022-11-18T15:52:16;8.80;84.50
152;DHT22;68;48.792;9.164;2022-11-18T15:54:43;9.00;81.40
152;DHT22;68;48.792;9.164;2022-11-18T15:57:10;9.00;83.40
152;DHT22;68;48.792;9.164;2022-11-18T15:59:36;9.00;82.10
152;DHT22;68;48.792;9.164;2022-11-18T16:02:05;8.90;80.60
152;DHT22;68;48.792;9.164;2022-11-18T16:04:31;8.90;77.60
152;DHT22;68;48.792;9.164;2022-11-18T16:06:58;8.90;78.40
152;DHT22;68;48.792;9.164;2022-11-18T16:09:27;9.00;77.40
152;DHT22;68;48.792;9.164;2022-11-18T16:12:14;8.80;77.40
152;DHT22;68;48.792;9.164;2022-11-18T16:14:59;9.00;76.20
152;DHT22;68;48.792;9.164;2022-11-18T16:17:44;8.90;78.10
152;DHT22;68;48.792;9.164;2022-11-18T16:20:11;8.70;78.40
152;DHT22;68;48.792;9.164;2022-11-18T16:22:38;8.80;74.90
152;DHT22;68;48.792;9.164;2022-11-18T16:25:05;8.90;76.20
152;DHT22;68;48.792;9.164;2022-11-18T16:27:33;8.80;77.50
152;DHT22;68;48.792;9.164;2022-11-18T16:30:00;8.90;76.00
152;DHT22;68;48.792;9.164;2022-11-18T16:32:28;9.00;76.90
152;DHT22;68;48.792;9.164;2022-11-18T16:34:57;8.80;79.30
152;DHT22;68;48.792;9.164;2022-11-18T16:37:24;8.80;78.10
152;DHT22;68;48.792;9.164;2022-11-18T16:39:51;8.70;74.70
152;DHT22;68;48.792;9.164;2022-11-18T16:42:18;8.60;73.70
152;DHT22;68;48.792;9.164;2022-11-18T16:44:45;8.40;71.50
152;DHT22;68;48.792;9.164;2022-11-18T16:47:12;8.60;69.60
152;DHT22;68;48.792;9.164;2022-11-18T16:49:39;8.70;69.40
152;DHT22;68;48.792;9.164;2022-11-18T16:52:07;9.00;73.40
152;DHT22;68;48.792;9.164;2022-11-18T16:54:34;8.80;76.00
152;DHT22;68;48.792;9.164;2022-11-18T16:57:01;8.70;78.30
152;DHT22;68;48.792;9.164;2022-11-18T16:59:29;8.40;77.50
152;DHT22;68;48.792;9.164;2022-11-18T17:01:57;8.30;74.50
152;DHT22;68;48.792;9.164;2022-11-18T17:04:26;8.10;71.30
152;DHT22;68;48.792;9.164;2022-11-18T17:06:53;8.10;68.10
152;DHT22;68;48.792;9.164;2022-11-18T17:09:23;8.00;66.20
152;DHT22;68;48.792;9.164;2022-11-18T17:11:50;8.00;63.20
152;DHT22;68;48.792;9.164;2022-11-18T17:14:18;8.20;60.50
152;DHT22;68;48.792;9.164;2022-11-18T17:16:46;8.30;61.60
152;DHT22;68;48.792;9.164;2022-11-18T17:19:14;8.20;62.40
152;DHT22;68;48.792;9.164;2022-11-18T17:21:42;8.10;62.70
152;DHT22;68;48.792;9.164;2022-11-18T17:24:10;8.10;61.90
152;DHT22;68;48.792;9.164;2022-11-18T17:26:40;8.40;61.70
152;DHT22;68;48.792;9.164;2022-11-18T17:29:08;8.40;65.20
152;DHT22;68;48.792;9.164;2022-11-18T17:31:35;8.40;67.10
152;DHT22;68;48.792;9.164;2022-11-18T17:34:02;8.20;67.70
152;DHT22;68;48.792;9.164;2022-11-18T17:36:28;8.10;69.50
152;DHT22;68;48.792;9.164;2022-11-18T17:38:58;8.00;69.20
152;DHT22;68;48.792;9.164;2022-11-18T17:41:26;7.90;66.80
152;DHT22;68;48.792;9.164;2022-11-18T17:44:14;8.00;65.00
152;DHT22;68;48.792;9.164;2022-11-18T17:46:42;8.00;66.00
152;DHT22;68;48.792;9.164;2022-11-18T17:49:11;7.90;68.10